createdAt,value
2022-08-29T00:01:30.167Z,97628.45
2022-08-29T00:04:37.536Z,97635.59
2022-08-29T00:07:30.631Z,97633.11
2022-08-29T00:10:20.510Z,97628.19
2022-08-29T00:12:53.737Z,97629.30
2022-08-29T00:15:45.603Z,97635.88
2022-08-29T00:18:19.393Z,97633.77
2022-08-29T00:21:44.072Z,97635.95
2022-08-29T00:25:10.156Z,97637.48
2022-08-29T00:28:34.076Z,97635.52
2022-08-29T00:31:07.253Z,97636.91
2022-08-29T00:33:58.931Z,97639.77
2022-08-29T00:36:49.936Z,97635.20
2022-08-29T00:43:04.404Z,97638.23
2022-08-29T00:46:07.098Z,97633.80
2022-08-29T00:52:05.768Z,97627.10
2022-08-29T00:55:33.105Z,97627.53
2022-08-29T00:58:30.399Z,97619.58
2022-08-29T01:08:46.748Z,97619.27
2022-08-29T01:11:38.513Z,97615.52
2022-08-29T01:14:30.502Z,97616.68
2022-08-29T01:17:05.249Z,97622.12
2022-08-29T01:20:17.708Z,97629.31
2022-08-29T01:23:19.609Z,97626.37
2022-08-29T01:26:29.996Z,97627.36
2022-08-29T01:29:20.408Z,97628.08
2022-08-29T01:32:28.032Z,97631.66
2022-08-29T01:35:20.228Z,97633.12
2022-08-29T01:38:10.661Z,97634.97
2022-08-29T01:44:08.319Z,97635.56
2022-08-29T01:47:14.831Z,97633.71
2022-08-29T01:50:40.308Z,97635.38
2022-08-29T01:56:58.271Z,97643.40
2022-08-29T01:59:49.876Z,97646.55
2022-08-29T02:03:13.805Z,97644.35
2022-08-29T02:12:23.318Z,97648.27
2022-08-29T02:14:56.004Z,97643.54
2022-08-29T02:17:29.776Z,97644.19
2022-08-29T02:20:03.206Z,97640.73
2022-08-29T02:22:36.001Z,97640.52
2022-08-29T02:25:25.504Z,97639.30
2022-08-29T02:31:09.731Z,97639.75
2022-08-29T02:37:09.962Z,97633.70
2022-08-29T02:40:31.599Z,97631.09
2022-08-29T02:46:46.238Z,97630.83
2022-08-29T02:49:38.490Z,97632.91
2022-08-29T02:56:30.223Z,97640.13
2022-08-29T02:59:55.776Z,97639.64
2022-08-29T03:05:22.396Z,97640.98
2022-08-29T03:15:22.558Z,97642.46
2022-08-29T03:17:55.525Z,97639.94
2022-08-29T03:20:29.228Z,97636.21
2022-08-29T03:23:54.902Z,97637.84
2022-08-29T03:26:27.925Z,97641.39
2022-08-29T03:29:35.884Z,97644.17
2022-08-29T03:32:09.322Z,97643.78
2022-08-29T03:35:22.987Z,97647.27
2022-08-29T03:38:14.854Z,97648.64
2022-08-29T03:41:06.405Z,97649.35
2022-08-29T03:44:14.220Z,97645.14
2022-08-29T03:47:03.519Z,97644.88
2022-08-29T03:49:55.041Z,97645.61
2022-08-29T03:52:46.801Z,97645.80
2022-08-29T03:55:37.184Z,97651.35
2022-08-29T03:58:51.915Z,97652.54
2022-08-29T04:02:01.464Z,97653.00
2022-08-29T04:08:00.515Z,97655.98
2022-08-29T04:10:51.409Z,97656.86
2022-08-29T04:16:52.231Z,97649.94
2022-08-29T04:19:42.356Z,97654.08
2022-08-29T04:22:15.395Z,97653.36
2022-08-29T04:28:31.996Z,97650.47
2022-08-29T04:31:22.323Z,97651.88
2022-08-29T04:34:14.906Z,97656.77
2022-08-29T04:37:41.421Z,97655.90
2022-08-29T04:40:32.058Z,97650.20
2022-08-29T04:47:04.119Z,97662.30
2022-08-29T04:50:15.684Z,97666.35
2022-08-29T04:53:06.300Z,97662.01
2022-08-29T04:59:38.896Z,97664.53
2022-08-29T05:06:14.824Z,97660.79
2022-08-29T05:09:22.271Z,97667.81
2022-08-29T05:11:55.159Z,97665.90
2022-08-29T05:15:25.022Z,97659.92
2022-08-29T05:18:52.321Z,97657.49
2022-08-29T05:21:42.287Z,97649.95
2022-08-29T05:24:15.384Z,97642.59
2022-08-29T05:30:34.976Z,97639.32
2022-08-29T05:33:44.769Z,97644.39
2022-08-29T05:37:12.162Z,97648.73
2022-08-29T05:40:20.574Z,97658.16
2022-08-29T05:47:11.604Z,97652.80
2022-08-29T05:49:46.205Z,97648.88
2022-08-29T05:52:18.552Z,97650.80
2022-08-29T05:55:10.956Z,97648.59
2022-08-29T05:58:18.524Z,97645.87
2022-08-29T06:01:43.017Z,97647.59
2022-08-29T06:04:49.486Z,97648.41
2022-08-29T06:07:39.243Z,97649.30
2022-08-29T06:10:29.431Z,97647.39
2022-08-29T06:13:01.983Z,97649.02
2022-08-29T06:16:11.744Z,97650.29
2022-08-29T06:19:18.894Z,97652.55
2022-08-29T06:21:55.504Z,97659.13
2022-08-29T06:24:47.260Z,97654.61
2022-08-29T06:30:44.687Z,97650.77
2022-08-29T06:33:56.178Z,97654.35
2022-08-29T06:40:57.328Z,97650.29
2022-08-29T06:43:28.811Z,97651.69
2022-08-29T06:46:36.325Z,97651.22
2022-08-29T06:52:02.316Z,97662.73
2022-08-29T06:57:46.104Z,97666.36
2022-08-29T07:00:36.217Z,97665.80
2022-08-29T07:03:45.094Z,97664.42
2022-08-29T07:06:37.128Z,97660.41
2022-08-29T07:12:56.101Z,97663.95
2022-08-29T07:18:57.774Z,97664.96
2022-08-29T07:21:47.815Z,97669.02
2022-08-29T07:27:45.074Z,97667.56
2022-08-29T07:30:35.077Z,97672.94
2022-08-29T07:33:41.780Z,97674.20
2022-08-29T07:39:41.444Z,97672.02
2022-08-29T07:42:32.582Z,97672.17
2022-08-29T07:45:23.133Z,97675.13
2022-08-29T07:47:56.219Z,97672.14
2022-08-29T07:50:46.474Z,97674.05
2022-08-29T07:53:36.324Z,97673.40
2022-08-29T07:59:40.071Z,97679.86
2022-08-29T08:02:29.409Z,97683.77
2022-08-29T08:05:22.532Z,97683.71
2022-08-29T08:11:37.980Z,97685.66
2022-08-29T08:14:11.275Z,97686.56
2022-08-29T08:17:44.390Z,97685.51
2022-08-29T08:20:17.307Z,97686.77
2022-08-29T08:22:49.788Z,97684.17
2022-08-29T08:25:39.307Z,97683.92
2022-08-29T08:31:22.687Z,97692.21
2022-08-29T08:33:55.751Z,97697.96
2022-08-29T08:36:46.874Z,97695.73
2022-08-29T08:39:40.821Z,97695.66
2022-08-29T08:42:27.799Z,97697.42
2022-08-29T08:45:26.907Z,97688.30
2022-08-29T08:48:35.917Z,97687.59
2022-08-29T08:51:15.584Z,97687.77
2022-08-29T08:53:50.477Z,97692.92
2022-08-29T08:57:03.166Z,97690.92
2022-08-29T08:59:39.599Z,97686.91
2022-08-29T09:09:17.887Z,97684.92
2022-08-29T09:12:38.904Z,97689.57
2022-08-29T09:18:53.924Z,97695.56
2022-08-29T09:21:45.281Z,97695.95
2022-08-29T09:24:28.416Z,97694.42
2022-08-29T09:27:18.415Z,97694.58
2022-08-29T09:37:28.223Z,97694.84
2022-08-29T09:43:54.224Z,97687.70
2022-08-29T09:47:02.263Z,97684.09
2022-08-29T09:49:51.620Z,97683.47
2022-08-29T09:53:02.912Z,97684.39
2022-08-29T09:56:01.964Z,97683.34
2022-08-29T09:59:17.756Z,97682.94
2022-08-29T10:08:40.145Z,97680.73
2022-08-29T10:11:23.201Z,97679.64
2022-08-29T10:14:14.501Z,97682.71
2022-08-29T10:17:42.234Z,97683.31
2022-08-29T10:20:15.358Z,97680.46
2022-08-29T10:23:14.515Z,97679.48
2022-08-29T10:26:13.900Z,97681.07
2022-08-29T10:29:38.367Z,97678.64
2022-08-29T10:32:49.407Z,97675.55
2022-08-29T10:35:54.225Z,97667.51
2022-08-29T10:45:36.435Z,97664.73
2022-08-29T10:48:11.921Z,97661.73
2022-08-29T10:51:12.037Z,97662.70
2022-08-29T10:57:39.363Z,97656.38
2022-08-29T11:00:39.319Z,97657.47
2022-08-29T11:04:03.501Z,97656.39
2022-08-29T11:07:17.864Z,97652.41
2022-08-29T11:09:55.732Z,97648.27
2022-08-29T11:13:11.695Z,97644.21
2022-08-29T11:16:20.165Z,97643.35
2022-08-29T11:30:11.921Z,97635.16
2022-08-29T11:32:55.217Z,97640.44
2022-08-29T11:36:03.790Z,97635.14
2022-08-29T11:39:31.159Z,97628.30
2022-08-29T11:42:53.579Z,97628.39
2022-08-29T11:46:00.438Z,97623.13
2022-08-29T11:49:26.163Z,97618.19
2022-08-29T11:52:43.100Z,97618.16
2022-08-29T12:02:05.973Z,97606.41
2022-08-29T12:05:16.609Z,97602.87
2022-08-29T12:08:36.023Z,97599.16
2022-08-29T12:15:10.872Z,97592.90
2022-08-29T12:18:03.841Z,97590.66
2022-08-29T12:24:08.653Z,97582.16
2022-08-29T12:29:55.125Z,97577.55
2022-08-29T12:36:32.415Z,97576.58
2022-08-29T12:39:38.050Z,97569.93
2022-08-29T12:45:50.693Z,97552.13
2022-08-29T12:48:46.316Z,97550.85
2022-08-29T12:52:24.307Z,97546.77
2022-08-29T12:55:17.388Z,97545.08
2022-08-29T12:58:09.791Z,97540.23
2022-08-29T13:01:30.002Z,97535.15
2022-08-29T13:04:44.563Z,97533.55
2022-08-29T13:07:56.379Z,97538.39
2022-08-29T13:11:33.675Z,97534.95
2022-08-29T13:14:13.741Z,97526.70
2022-08-29T13:17:03.222Z,97525.23
2022-08-29T13:20:27.809Z,97521.21
2022-08-29T13:23:22.430Z,97520.81
2022-08-29T13:29:28.058Z,97507.35
2022-08-29T13:32:27.019Z,97504.25
2022-08-29T13:38:42.002Z,97506.10
2022-08-29T13:42:17.999Z,97501.77
2022-08-29T13:45:42.074Z,97499.20
2022-08-29T13:48:37.633Z,97496.16
2022-08-29T13:51:13.558Z,97491.63
2022-08-29T13:54:03.403Z,97492.45
2022-08-29T13:56:54.920Z,97491.98
2022-08-29T13:59:48.360Z,97492.98
2022-08-29T14:06:22.372Z,97487.48
2022-08-29T14:12:44.303Z,97476.18
2022-08-29T14:15:36.550Z,97482.86
2022-08-29T14:18:27.023Z,97477.41
2022-08-29T14:21:03.931Z,97478.60
2022-08-29T14:24:12.543Z,97471.05
2022-08-29T14:27:21.027Z,97469.26
2022-08-29T14:29:54.235Z,97475.45
2022-08-29T14:33:02.236Z,97472.30
2022-08-29T14:35:52.193Z,97465.27
2022-08-29T14:41:50.493Z,97456.54
2022-08-29T14:48:40.802Z,97455.88
2022-08-29T14:54:20.607Z,97451.25
2022-08-29T14:57:29.614Z,97446.95
2022-08-29T15:03:46.704Z,97457.48
2022-08-29T15:06:39.671Z,97455.48
2022-08-29T15:09:30.502Z,97459.16
2022-08-29T15:15:30.791Z,97462.02
2022-08-29T15:18:59.558Z,97462.30
2022-08-29T15:21:33.117Z,97465.86
2022-08-29T15:24:40.809Z,97467.04
2022-08-29T15:27:13.697Z,97467.14
2022-08-29T15:30:03.893Z,97469.20
2022-08-29T15:32:54.027Z,97465.95
2022-08-29T15:36:37.176Z,97464.91
2022-08-29T15:39:29.010Z,97461.20
2022-08-29T15:45:30.334Z,97451.77
2022-08-29T15:48:39.344Z,97447.27
2022-08-29T15:54:39.040Z,97444.09
2022-08-29T15:57:11.565Z,97446.40
2022-08-29T16:03:26.869Z,97444.04
2022-08-29T16:09:41.797Z,97444.93
2022-08-29T16:12:31.548Z,97445.09
2022-08-29T16:15:21.423Z,97435.73
2022-08-29T16:21:02.457Z,97430.51
2022-08-29T16:23:35.622Z,97431.08
2022-08-29T16:26:08.280Z,97432.23
2022-08-29T16:28:58.208Z,97429.98
2022-08-29T16:31:48.059Z,97429.77
2022-08-29T16:38:06.340Z,97435.17
2022-08-29T16:40:55.820Z,97433.95
2022-08-29T16:43:28.325Z,97433.01
2022-08-29T16:46:00.989Z,97432.90
2022-08-29T16:48:35.012Z,97433.06
2022-08-29T16:54:52.094Z,97430.66
2022-08-29T17:01:49.901Z,97419.30
2022-08-29T17:05:16.792Z,97419.61
2022-08-29T17:08:06.994Z,97425.38
2022-08-29T17:11:13.900Z,97435.29
2022-08-29T17:13:45.291Z,97442.05
2022-08-29T17:16:35.009Z,97447.21
2022-08-29T17:25:05.676Z,97461.02
2022-08-29T17:28:16.604Z,97460.05
2022-08-29T17:31:25.855Z,97452.51
2022-08-29T17:34:18.182Z,97456.80
2022-08-29T17:43:47.130Z,97467.42
2022-08-29T17:46:22.060Z,97475.43
2022-08-29T17:48:54.594Z,97480.32
2022-08-29T17:51:28.395Z,97478.48
2022-08-29T17:58:03.435Z,97477.24
2022-08-29T18:07:28.360Z,97465.46
2022-08-29T18:10:03.934Z,97470.66
2022-08-29T18:13:11.003Z,97474.64
2022-08-29T18:15:43.787Z,97480.44
2022-08-29T18:18:52.561Z,97485.53
2022-08-29T18:21:44.967Z,97486.52
2022-08-29T18:24:53.658Z,97492.13
2022-08-29T18:28:02.530Z,97499.77
2022-08-29T18:30:51.978Z,97505.31
2022-08-29T18:34:01.461Z,97509.05
2022-08-29T18:39:58.952Z,97512.06
2022-08-29T18:43:06.216Z,97516.45
2022-08-29T18:49:06.796Z,97530.94
2022-08-29T18:51:39.721Z,97536.38
2022-08-29T18:54:47.967Z,97537.03
2022-08-29T18:57:55.106Z,97538.01
2022-08-29T19:01:03.659Z,97537.00
2022-08-29T19:03:54.249Z,97538.51
2022-08-29T19:07:00.664Z,97537.06
2022-08-29T19:12:42.622Z,97541.32
2022-08-29T19:15:41.280Z,97544.56
2022-08-29T19:22:16.075Z,97542.91
2022-08-29T19:25:07.099Z,97544.54
2022-08-29T19:30:49.620Z,97542.98
2022-08-29T19:34:14.360Z,97548.95
2022-08-29T19:37:21.466Z,97552.75
2022-08-29T19:39:53.938Z,97556.48
2022-08-29T19:45:19.529Z,97554.64
2022-08-29T19:48:29.459Z,97556.96
2022-08-29T19:55:21.939Z,97551.32
2022-08-29T19:58:31.207Z,97546.41
2022-08-29T20:01:42.782Z,97549.39
2022-08-29T20:04:15.787Z,97550.52
2022-08-29T20:07:08.321Z,97553.48
2022-08-29T20:09:59.462Z,97555.05
2022-08-29T20:13:29.293Z,97556.15
2022-08-29T20:16:45.662Z,97562.24
2022-08-29T20:19:35.933Z,97563.02
2022-08-29T20:22:30.392Z,97564.73
2022-08-29T20:25:48.027Z,97560.67
2022-08-29T20:28:54.800Z,97553.23
2022-08-29T20:31:28.161Z,97554.55
2022-08-29T20:34:19.525Z,97563.12
2022-08-29T20:37:14.242Z,97570.48
2022-08-29T20:40:06.188Z,97572.38
2022-08-29T20:46:22.182Z,97573.77
2022-08-29T20:54:54.024Z,97588.06
2022-08-29T20:57:26.558Z,97583.53
2022-08-29T20:59:59.086Z,97586.02
2022-08-29T21:06:48.987Z,97590.98
2022-08-29T21:09:22.181Z,97595.52
2022-08-29T21:12:29.139Z,97594.05
2022-08-29T21:15:36.323Z,97598.36
2022-08-29T21:18:43.982Z,97593.80
2022-08-29T21:24:41.422Z,97595.59
2022-08-29T21:30:57.707Z,97602.16
2022-08-29T21:37:16.461Z,97606.07
2022-08-29T21:43:31.824Z,97610.83
2022-08-29T21:46:43.586Z,97613.35
2022-08-29T21:49:34.155Z,97609.40
2022-08-29T21:52:41.097Z,97611.44
2022-08-29T22:01:13.749Z,97605.80
2022-08-29T22:04:28.548Z,97607.33
2022-08-29T22:07:19.742Z,97607.89
2022-08-29T22:16:27.497Z,97617.92
2022-08-29T22:19:17.563Z,97618.77
2022-08-29T22:21:52.929Z,97619.48
2022-08-29T22:28:27.112Z,97624.92
2022-08-29T22:30:59.855Z,97629.38
2022-08-29T22:33:50.060Z,97631.08
2022-08-29T22:36:58.409Z,97634.83
2022-08-29T22:40:05.230Z,97635.85
2022-08-29T22:42:55.257Z,97638.77
2022-08-29T22:45:48.763Z,97645.90
2022-08-29T22:48:38.493Z,97644.65
2022-08-29T22:51:47.449Z,97643.14
2022-08-29T22:54:38.690Z,97646.83
2022-08-29T22:57:46.452Z,97647.09
2022-08-29T23:03:48.443Z,97656.73
2022-08-29T23:06:55.434Z,97659.92
2022-08-29T23:10:03.588Z,97656.13
2022-08-29T23:12:53.872Z,97654.35
2022-08-29T23:16:19.159Z,97649.98
2022-08-29T23:19:12.281Z,97649.31
2022-08-29T23:22:19.466Z,97653.89
2022-08-29T23:25:45.321Z,97653.09
2022-08-29T23:28:36.224Z,97658.30
2022-08-29T23:31:46.405Z,97656.29
2022-08-29T23:34:19.230Z,97655.23
2022-08-29T23:37:10.476Z,97659.64
2022-08-29T23:49:36.490Z,97649.16
